Pays
Station

 

Conditions  météo  pour  Marfa  -  Etats-Unis    Etats-Unis

  
23 °C
    
 
 

METAR pour Marfa :

KMRF 212156Z AUTO 20019G23KT 10SM CLR 23/M08 A2989 RMK AO2 SLP096 T02281078

 

Voici le bulletin pour Marfa - Etats-Unis.
 
Le bulletin a été fait il y a un moment, à 21:56 UTC .
Le vent soufflait à la vitesse de 9.8 mètres par seconde avec des rafales jusqu'à 11.8 mètres par seconde de Sud/Sud-ouest (200°).
 
La température était de 23 °C, avec un point de rosée à -8 °C.
La température ressentie était de 23 °C.
 
La pression atmosphérique était de 1012 hPa.
L'humidité relative était de 11.9%.
 
Le ciel était clair.
 
La visibilité globale était de 16.1 kilomètres.
 

 
 
 

Pays :   A   B   C   D   E   F   G   H   I   J   K   L   M   N   O   P   Q   R   S   T   U   V   W   Y   Z

 

Partenaires :  Info Météo avec Met'info
Météo Marine avec MeteoMarine.net
Infos Site  |  Infos Légales  |  Crédits  |  Confidentialité
Contactez-nous  |  Ajouter aux favoris
© 2013-2019 METAR - Tous droits réservés